Time;durP1;ratioP1;P1;durP2;ratioP2;P2;SDS_P1;SDS_P2;PMS_P1;PMS_P2;Temp;Humidity;BMP_temperature;BMP_pressure;BME280_temperature;BME280_humidity;BME280_pressure;Samples;Min_cycle;Max_cycle;Signal;HPM_P1;HPM_P2
2021/06/07 00:00:19;;;;;;;1.70;1.17;;;18.60;99.90;;;;;;4975090;28;20460;-80
2021/06/07 00:02:44;;;;;;;1.50;1.40;;;18.60;99.90;;;;;;4974309;28;20646;-80
2021/06/07 00:05:10;;;;;;;2.30;1.23;;;18.60;99.90;;;;;;4958761;28;20421;-81
2021/06/07 00:07:36;;;;;;;2.77;1.57;;;18.60;99.90;;;;;;4955629;29;20186;-80
2021/06/07 00:10:04;;;;;;;1.57;1.10;;;18.60;99.90;;;;;;4973369;28;20441;-79
2021/06/07 00:12:29;;;;;;;1.30;1.20;;;18.60;99.90;;;;;;4976337;28;20182;-80
2021/06/07 00:14:55;;;;;;;1.57;1.47;;;18.60;99.90;;;;;;4958469;28;20467;-80
2021/06/07 00:17:20;;;;;;;5.83;2.60;;;18.60;99.90;;;;;;4958088;28;20261;-81
2021/06/07 00:19:46;;;;;;;1.93;1.70;;;18.60;99.90;;;;;;4958142;28;20197;-81
2021/06/07 00:22:12;;;;;;;1.67;1.57;;;18.60;99.90;;;;;;4975618;28;20205;-80
2021/06/07 00:24:37;;;;;;;3.00;1.70;;;18.60;99.90;;;;;;4958620;28;20228;-81
2021/06/07 00:27:04;;;;;;;4.67;1.87;;;18.50;99.90;;;;;;4976566;28;20237;-80
2021/06/07 00:29:30;;;;;;;2.20;2.00;;;18.50;99.90;;;;;;4963453;28;20189;-80
2021/06/07 00:31:55;;;;;;;1.77;1.37;;;18.50;99.90;;;;;;4976307;28;20499;-81
2021/06/07 00:34:22;;;;;;;2.10;1.67;;;18.50;99.90;;;;;;4991186;28;20198;-81
2021/06/07 00:36:48;;;;;;;2.60;2.40;;;18.50;99.90;;;;;;4958451;28;20244;-81
2021/06/07 00:39:16;;;;;;;2.57;2.33;;;18.50;99.90;;;;;;4958395;28;20976;-81
2021/06/07 00:41:45;;;;;;;4.73;1.80;;;18.50;99.90;;;;;;4959676;28;20253;-80
2021/06/07 00:44:14;;;;;;;3.87;2.23;;;18.40;99.90;;;;;;4958770;28;20453;-80
2021/06/07 00:46:40;;;;;;;1.40;1.30;;;18.40;99.90;;;;;;4968748;28;20429;-80
2021/06/07 00:49:08;;;;;;;2.13;2.03;;;18.40;99.90;;;;;;4968537;28;20441;-81
2021/06/07 00:51:33;;;;;;;4.60;2.57;;;18.40;99.90;;;;;;4976275;28;20417;-81
2021/06/07 00:54:00;;;;;;;3.07;1.63;;;18.40;99.90;;;;;;4976180;28;20467;-81
2021/06/07 00:56:25;;;;;;;1.03;0.93;;;18.30;99.90;;;;;;4958557;28;20174;-81
2021/06/07 00:58:51;;;;;;;1.20;1.10;;;18.30;99.90;;;;;;4975771;28;20515;-80
2021/06/07 01:01:22;;;;;;;3.67;2.37;;;18.30;99.90;;;;;;4958754;28;20177;-81
2021/06/07 01:03:52;;;;;;;1.70;1.10;;;18.30;99.90;;;;;;4994433;28;20181;-81
2021/06/07 01:06:18;;;;;;;3.70;2.50;;;18.30;99.90;;;;;;4976091;28;20416;-81
2021/06/07 01:08:44;;;;;;;2.20;2.00;;;18.30;99.90;;;;;;4971412;28;20453;-80
2021/06/07 01:11:10;;;;;;;1.73;1.30;;;18.30;99.90;;;;;;4973308;28;20483;-81
2021/06/07 01:13:37;;;;;;;2.27;1.37;;;18.30;99.90;;;;;;4961489;28;20205;-81
2021/06/07 01:16:04;;;;;;;2.63;1.90;;;18.30;99.90;;;;;;4957734;28;20429;-80
2021/06/07 01:18:30;;;;;;;2.47;2.27;;;18.20;99.90;;;;;;4974784;28;20808;-80
2021/06/07 01:21:19;;;;;;;2.83;2.53;;;18.30;99.90;;;;;;4958428;28;20536;-81
2021/06/07 01:23:46;;;;;;;3.70;2.70;;;18.20;99.90;;;;;;4957880;28;20588;-81
2021/06/07 01:26:14;;;;;;;1.53;1.43;;;18.20;99.90;;;;;;4975015;28;20826;-81
2021/06/07 01:28:41;;;;;;;1.50;1.20;;;18.20;99.90;;;;;;4958738;28;20461;-81
2021/06/07 01:31:09;;;;;;;1.37;1.27;;;18.20;99.90;;;;;;4959257;28;20429;-81
2021/06/07 01:33:35;;;;;;;3.27;1.80;;;18.20;99.90;;;;;;4975769;28;20468;-82
2021/06/07 01:36:04;;;;;;;6.20;1.27;;;18.20;99.90;;;;;;4955191;28;20478;-80
2021/06/07 01:38:30;;;;;;;1.63;1.27;;;18.30;99.90;;;;;;4975701;28;20420;-81
2021/06/07 01:40:58;;;;;;;3.27;2.80;;;18.20;99.90;;;;;;4991812;28;20692;-81
2021/06/07 01:43:25;;;;;;;2.80;2.60;;;18.20;99.90;;;;;;4992052;28;20550;-81
2021/06/07 01:45:52;;;;;;;7.00;2.83;;;18.10;99.90;;;;;;4959341;28;20942;-81
2021/06/07 01:48:19;;;;;;;1.77;1.50;;;18.10;99.90;;;;;;4975725;28;20421;-81
2021/06/07 01:50:46;;;;;;;2.07;1.87;;;18.10;99.90;;;;;;4959540;28;20830;-81
2021/06/07 01:53:13;;;;;;;1.30;1.20;;;18.10;99.90;;;;;;4976447;28;20425;-80
2021/06/07 01:55:45;;;;;;;3.13;1.17;;;18.00;99.90;;;;;;4958923;28;20444;-82
2021/06/07 01:58:12;;;;;;;1.30;1.20;;;18.00;99.90;;;;;;4964191;28;20516;-81
2021/06/07 02:01:05;;;;;;;1.83;1.50;;;18.00;99.90;;;;;;4959496;28;20417;-80
2021/06/07 02:03:31;;;;;;;1.80;1.10;;;18.00;99.90;;;;;;4970699;28;20417;-81
2021/06/07 02:05:59;;;;;;;4.33;2.70;;;18.00;99.90;;;;;;4992160;28;20420;-81
2021/06/07 02:08:30;;;;;;;2.60;2.40;;;18.00;99.90;;;;;;4976306;28;20964;-81
2021/06/07 02:10:59;;;;;;;5.30;2.80;;;18.00;99.90;;;;;;4976709;28;20467;-80
2021/06/07 02:13:25;;;;;;;2.63;1.97;;;17.90;99.90;;;;;;4961040;28;20405;-81
2021/06/07 02:15:56;;;;;;;2.93;2.57;;;17.90;99.90;;;;;;4957463;28;20520;-81
2021/06/07 02:18:22;;;;;;;1.90;1.50;;;17.90;99.90;;;;;;4975079;28;20177;-80
2021/06/07 02:20:48;;;;;;;4.77;2.87;;;17.90;99.90;;;;;;4975903;28;20440;-82
2021/06/07 02:23:13;;;;;;;2.80;1.83;;;17.90;99.90;;;;;;4990896;28;20184;-81
2021/06/07 02:25:39;;;;;;;3.27;2.90;;;17.80;99.90;;;;;;4958634;28;20173;-80
2021/06/07 02:28:10;;;;;;;2.40;1.93;;;17.80;99.90;;;;;;4961488;28;20182;-80
2021/06/07 02:30:36;;;;;;;2.63;2.43;;;17.80;99.90;;;;;;4962195;28;20808;-82
2021/06/07 02:33:01;;;;;;;6.63;2.70;;;17.80;99.90;;;;;;4995083;28;20456;-79
2021/06/07 02:35:27;;;;;;;2.43;2.23;;;17.70;99.90;;;;;;4994282;28;20201;-80
2021/06/07 02:37:54;;;;;;;2.70;1.03;;;17.70;99.90;;;;;;4993749;28;20216;-81
2021/06/07 02:40:23;;;;;;;2.30;2.10;;;17.70;99.90;;;;;;4979390;28;20204;-79
2021/06/07 02:42:50;;;;;;;3.30;2.37;;;17.70;99.90;;;;;;4961214;28;20428;-80
2021/06/07 02:45:17;;;;;;;2.03;1.87;;;17.60;99.90;;;;;;4961369;28;20431;-80
2021/06/07 02:47:44;;;;;;;2.43;1.50;;;17.60;99.90;;;;;;4960903;28;20456;-80
2021/06/07 02:50:12;;;;;;;1.80;1.20;;;17.60;99.90;;;;;;4960858;28;20527;-81
2021/06/07 02:52:48;;;;;;;1.67;1.20;;;17.60;99.90;;;;;;4978644;28;20425;-81
2021/06/07 02:55:23;;;;;;;1.40;1.30;;;17.60;99.90;;;;;;4960795;28;20456;-80
2021/06/07 02:57:50;;;;;;;1.93;1.73;;;17.60;99.90;;;;;;4976826;28;20420;-81
2021/06/07 03:00:28;;;;;;;5.17;2.20;;;17.60;99.90;;;;;;4960437;28;20449;-80
2021/06/07 03:02:55;;;;;;;1.17;1.07;;;17.50;99.90;;;;;;4957596;29;20469;-80
2021/06/07 03:05:21;;;;;;;2.20;2.00;;;17.50;99.90;;;;;;4956609;28;20453;-81
2021/06/07 03:07:46;;;;;;;1.63;1.27;;;17.50;99.90;;;;;;4969303;28;20432;-80
2021/06/07 03:10:12;;;;;;;3.63;2.17;;;17.50;99.90;;;;;;4966721;28;20882;-80
2021/06/07 03:12:39;;;;;;;2.80;2.13;;;17.50;99.90;;;;;;4962898;28;20182;-80
2021/06/07 03:15:07;;;;;;;2.70;2.17;;;17.50;99.90;;;;;;4959892;28;20453;-80
2021/06/07 03:17:33;;;;;;;3.70;2.60;;;17.50;99.90;;;;;;4977618;28;20428;-80
2021/06/07 03:19:58;;;;;;;1.40;1.30;;;17.50;99.90;;;;;;4992462;28;21145;-80
2021/06/07 03:22:24;;;;;;;2.00;1.43;;;17.40;99.90;;;;;;4992623;28;20162;-80
2021/06/07 03:24:51;;;;;;;2.20;2.00;;;17.40;99.90;;;;;;4992058;28;20184;-81
2021/06/07 03:27:18;;;;;;;3.50;1.90;;;17.40;99.90;;;;;;4960078;28;20193;-81
2021/06/07 03:29:44;;;;;;;2.60;1.97;;;17.40;99.90;;;;;;4959345;28;20460;-80
2021/06/07 03:32:10;;;;;;;2.80;1.67;;;17.40;99.90;;;;;;4959184;28;20468;-82
2021/06/07 03:34:36;;;;;;;1.73;1.63;;;17.40;99.90;;;;;;4977255;28;20469;-81
2021/06/07 03:37:02;;;;;;;4.50;2.80;;;17.40;99.90;;;;;;4959894;28;20181;-80
2021/06/07 03:39:27;;;;;;;3.13;2.83;;;17.40;99.90;;;;;;4968838;28;20202;-80
2021/06/07 03:41:53;;;;;;;1.83;1.57;;;17.30;99.90;;;;;;4976685;28;20425;-80
2021/06/07 03:44:18;;;;;;;2.20;2.00;;;17.40;99.90;;;;;;4977530;28;20190;-80
2021/06/07 03:46:44;;;;;;;3.20;1.97;;;17.30;99.90;;;;;;4959989;28;20319;-80
2021/06/07 03:49:09;;;;;;;1.77;1.63;;;17.30;99.90;;;;;;4962330;28;20216;-80
2021/06/07 03:51:35;;;;;;;2.10;1.90;;;17.30;99.90;;;;;;4959171;28;20181;-80
2021/06/07 03:54:00;;;;;;;1.93;1.83;;;17.30;99.90;;;;;;4958672;28;20209;-80
2021/06/07 03:56:26;;;;;;;3.23;1.90;;;17.30;99.90;;;;;;4959896;28;20671;-80
2021/06/07 03:58:52;;;;;;;6.07;3.10;;;17.30;99.90;;;;;;4959722;28;20678;-81
2021/06/07 04:01:17;;;;;;;1.93;1.83;;;17.30;99.90;;;;;;4992222;28;20234;-80
2021/06/07 04:03:43;;;;;;;2.13;1.97;;;17.30;99.90;;;;;;4958951;28;20174;-81
2021/06/07 04:06:09;;;;;;;7.60;3.20;;;17.30;99.90;;;;;;4959193;28;20205;-81
2021/06/07 04:08:35;;;;;;;1.90;1.70;;;17.30;99.90;;;;;;4958913;28;20181;-81
2021/06/07 04:11:01;;;;;;;1.80;1.43;;;17.30;99.90;;;;;;4977742;28;20420;-80
2021/06/07 04:13:26;;;;;;;5.53;3.17;;;17.30;99.90;;;;;;4977277;28;20440;-81
2021/06/07 04:15:52;;;;;;;3.57;1.93;;;17.30;99.90;;;;;;4959023;28;20705;-80
2021/06/07 04:18:17;;;;;;;4.23;1.90;;;17.30;99.90;;;;;;4977095;28;20239;-82
2021/06/07 04:20:43;;;;;;;5.33;1.63;;;17.20;99.90;;;;;;4976974;28;20201;-81
2021/06/07 04:23:09;;;;;;;3.17;2.40;;;17.20;99.90;;;;;;4959485;28;20174;-80
2021/06/07 04:25:34;;;;;;;3.63;1.73;;;17.20;99.90;;;;;;4991930;28;20176;-80
2021/06/07 04:28:01;;;;;;;5.73;2.33;;;17.20;99.90;;;;;;4960584;28;20173;-80
2021/06/07 04:30:30;;;;;;;7.93;2.77;;;17.10;99.90;;;;;;4977265;28;20202;-81
2021/06/07 04:32:57;;;;;;;5.93;3.43;;;17.10;99.90;;;;;;4960856;28;20638;-81
2021/06/07 04:35:23;;;;;;;2.60;1.27;;;17.10;99.90;;;;;;4960193;28;20456;-80
2021/06/07 04:37:50;;;;;;;3.73;2.40;;;17.10;99.90;;;;;;4959757;28;20990;-80
2021/06/07 04:40:22;;;;;;;1.73;1.57;;;17.10;99.90;;;;;;4976936;28;20456;-80
2021/06/07 04:42:49;;;;;;;2.47;2.17;;;17.10;99.90;;;;;;4959317;28;20413;-80
2021/06/07 04:45:16;;;;;;;2.50;1.87;;;17.10;99.90;;;;;;4953019;28;20950;-81
2021/06/07 04:47:42;;;;;;;3.00;2.20;;;17.10;99.90;;;;;;4959102;28;20436;-80
2021/06/07 04:50:11;;;;;;;6.83;1.80;;;17.20;99.90;;;;;;4958981;28;20491;-80
2021/06/07 04:52:58;;;;;;;2.73;1.83;;;17.20;99.90;;;;;;4958995;28;20941;-80
2021/06/07 04:55:48;;;;;;;1.50;1.40;;;17.20;99.90;;;;;;4976329;28;20851;-81
2021/06/07 04:58:24;;;;;;;3.80;2.10;;;17.20;99.90;;;;;;4970714;28;20437;-81
2021/06/07 05:00:53;;;;;;;4.07;3.23;;;17.30;99.90;;;;;;4976459;28;20833;-81
2021/06/07 05:03:19;;;;;;;1.90;1.70;;;17.30;99.90;;;;;;4958207;28;20431;-80
2021/06/07 05:05:45;;;;;;;3.97;3.67;;;17.30;99.90;;;;;;4976510;28;20837;-80
2021/06/07 05:08:11;;;;;;;6.23;2.73;;;17.30;99.90;;;;;;4957506;28;20264;-80
2021/06/07 05:10:37;;;;;;;3.17;1.90;;;17.40;99.90;;;;;;4957794;28;20523;-79
2021/06/07 05:13:02;;;;;;;1.43;1.10;;;17.50;99.90;;;;;;4958233;28;20185;-80
2021/06/07 05:15:28;;;;;;;2.00;1.30;;;17.60;99.90;;;;;;4957895;28;20453;-80
2021/06/07 05:17:54;;;;;;;3.87;1.83;;;17.70;99.90;;;;;;4955939;28;20169;-80
2021/06/07 05:20:21;;;;;;;2.97;2.10;;;17.80;99.90;;;;;;4955729;28;20205;-80
2021/06/07 05:22:49;;;;;;;2.33;2.13;;;17.90;99.90;;;;;;4956515;28;20224;-82
2021/06/07 05:25:16;;;;;;;2.10;1.53;;;18.00;99.90;;;;;;4955999;28;20829;-81
2021/06/07 05:27:42;;;;;;;3.63;1.43;;;18.10;99.90;;;;;;4972653;28;20421;-80
2021/06/07 05:30:09;;;;;;;3.73;1.97;;;18.20;99.90;;;;;;4973309;28;20941;-80
2021/06/07 05:32:35;;;;;;;1.77;1.40;;;18.30;99.90;;;;;;4956100;28;20698;-80
2021/06/07 05:35:01;;;;;;;5.23;2.60;;;18.40;99.90;;;;;;4973062;28;20560;-80
2021/06/07 05:37:26;;;;;;;2.30;2.10;;;18.50;99.90;;;;;;4958563;28;20511;-81
2021/06/07 05:39:52;;;;;;;4.83;2.17;;;18.60;99.90;;;;;;4958557;28;20190;-80
2021/06/07 05:42:18;;;;;;;3.53;2.20;;;18.70;99.90;;;;;;4958291;28;20204;-80
2021/06/07 05:44:44;;;;;;;1.30;1.00;;;18.90;99.90;;;;;;4959139;28;20431;-80
2021/06/07 05:47:10;;;;;;;4.10;3.07;;;19.00;99.90;;;;;;4976430;28;20496;-80
2021/06/07 05:49:38;;;;;;;2.40;2.20;;;19.10;99.90;;;;;;4976706;28;20195;-80
2021/06/07 05:52:06;;;;;;;1.87;1.77;;;19.20;99.90;;;;;;4958562;28;20174;-79
2021/06/07 05:54:32;;;;;;;1.93;1.83;;;19.20;99.90;;;;;;4957473;28;20515;-80
2021/06/07 05:56:58;;;;;;;3.00;2.43;;;19.20;99.90;;;;;;4972435;28;20922;-81
2021/06/07 05:59:23;;;;;;;3.87;3.43;;;19.20;99.90;;;;;;4955403;28;20811;-81
2021/06/07 06:01:49;;;;;;;3.40;2.17;;;19.30;99.90;;;;;;4957198;28;20178;-80
2021/06/07 06:04:14;;;;;;;4.87;1.87;;;19.30;99.90;;;;;;4976486;28;20201;-81
2021/06/07 06:06:40;;;;;;;2.90;2.57;;;19.20;99.90;;;;;;4955552;29;20232;-80
2021/06/07 06:09:06;;;;;;;5.20;1.77;;;19.20;99.90;;;;;;4956673;28;20293;-81
2021/06/07 06:11:31;;;;;;;2.57;2.27;;;19.20;99.90;;;;;;4962523;28;20547;-80
2021/06/07 06:13:57;;;;;;;3.03;1.97;;;19.10;99.90;;;;;;4961863;28;20456;-83
2021/06/07 06:16:23;;;;;;;2.83;1.57;;;19.10;99.90;;;;;;4976490;28;20714;-83
2021/06/07 06:18:49;;;;;;;3.97;2.20;;;19.10;99.90;;;;;;4957066;28;20186;-80
2021/06/07 06:21:15;;;;;;;3.60;2.80;;;19.10;99.90;;;;;;4977986;28;20444;-80
2021/06/07 06:23:41;;;;;;;1.73;1.43;;;19.10;99.90;;;;;;4979415;28;20181;-80
2021/06/07 06:26:08;;;;;;;2.60;1.63;;;19.00;99.90;;;;;;4952044;29;20418;-80
2021/06/07 06:28:35;;;;;;;2.40;1.70;;;19.10;99.90;;;;;;4974229;28;20416;-80
2021/06/07 06:31:06;;;;;;;2.10;1.57;;;19.10;99.90;;;;;;4961020;28;20417;-80
2021/06/07 06:33:32;;;;;;;5.50;3.63;;;19.10;99.90;;;;;;4960317;28;20927;-80
2021/06/07 06:35:57;;;;;;;2.67;1.83;;;19.20;99.90;;;;;;4977555;28;20468;-81
2021/06/07 06:38:24;;;;;;;2.03;1.20;;;19.10;99.90;;;;;;4975997;28;20951;-80
2021/06/07 06:40:52;;;;;;;4.20;2.10;;;19.20;99.90;;;;;;4976915;28;20166;-82
2021/06/07 06:43:18;;;;;;;9.77;3.10;;;19.20;99.90;;;;;;4959029;28;20429;-81
2021/06/07 06:45:43;;;;;;;8.77;2.77;;;19.20;99.90;;;;;;4975591;28;20421;-80
2021/06/07 06:48:09;;;;;;;7.20;2.90;;;19.20;99.90;;;;;;4957568;28;20260;-80
2021/06/07 06:50:39;;;;;;;3.67;3.07;;;19.20;99.90;;;;;;4958374;28;20216;-81
2021/06/07 06:53:11;;;;;;;2.67;2.07;;;19.20;99.90;;;;;;4976772;28;20460;-80
2021/06/07 06:55:37;;;;;;;3.20;2.50;;;19.20;99.90;;;;;;4976299;28;20506;-80
2021/06/07 06:58:04;;;;;;;3.37;3.07;;;19.20;99.90;;;;;;4958291;28;20921;-80
2021/06/07 07:00:31;;;;;;;5.80;3.40;;;19.30;99.90;;;;;;4960029;28;20468;-81
2021/06/07 07:02:57;;;;;;;3.80;2.23;;;19.30;99.90;;;;;;4978188;28;20425;-79
2021/06/07 07:05:22;;;;;;;2.13;1.13;;;19.30;99.90;;;;;;4977317;28;20491;-78
2021/06/07 07:07:48;;;;;;;3.63;1.80;;;19.30;99.90;;;;;;4961194;28;20178;-79
2021/06/07 07:10:14;;;;;;;5.03;3.60;;;19.40;99.90;;;;;;4979420;28;20193;-79
2021/06/07 07:12:40;;;;;;;3.33;1.50;;;19.30;99.90;;;;;;4957307;28;20201;-80
2021/06/07 07:15:06;;;;;;;4.87;2.90;;;19.40;99.90;;;;;;4957938;28;20494;-80
2021/06/07 07:17:31;;;;;;;4.30;2.27;;;19.40;99.90;;;;;;4959496;28;20664;-80
2021/06/07 07:19:57;;;;;;;8.93;4.47;;;19.40;99.90;;;;;;4977962;28;20540;-80
2021/06/07 07:22:23;;;;;;;3.10;2.10;;;19.50;99.90;;;;;;4979200;28;20158;-79
2021/06/07 07:24:49;;;;;;;3.23;2.07;;;19.50;99.90;;;;;;4977857;28;20796;-80
2021/06/07 07:27:18;;;;;;;7.33;2.53;;;19.40;99.90;;;;;;4976005;28;20174;-79
2021/06/07 07:29:44;;;;;;;5.27;2.47;;;19.40;99.90;;;;;;4958351;29;20528;-80
2021/06/07 07:32:10;;;;;;;1.83;1.73;;;19.40;99.90;;;;;;4968885;28;20429;-80
2021/06/07 07:34:40;;;;;;;10.70;3.03;;;19.40;99.90;;;;;;4960985;28;20460;-80
2021/06/07 07:37:06;;;;;;;1.53;1.23;;;19.40;99.90;;;;;;4979707;28;20805;-79
2021/06/07 07:39:31;;;;;;;3.40;2.20;;;19.30;99.90;;;;;;4958277;28;20444;-78
2021/06/07 07:41:58;;;;;;;2.43;2.27;;;19.30;99.90;;;;;;4978823;28;20177;-78
2021/06/07 07:44:23;;;;;;;5.00;2.53;;;19.30;99.90;;;;;;4980626;28;20169;-79
2021/06/07 07:46:49;;;;;;;4.07;2.10;;;19.20;99.90;;;;;;4978356;28;21024;-79
2021/06/07 07:49:15;;;;;;;6.83;3.27;;;19.20;99.90;;;;;;4967309;28;20201;-78
2021/06/07 07:51:42;;;;;;;6.53;1.73;;;19.20;99.90;;;;;;4982852;28;20194;-79
2021/06/07 07:54:08;;;;;;;3.00;2.60;;;19.10;99.90;;;;;;4966654;28;20280;-79
2021/06/07 07:56:35;;;;;;;5.73;2.67;;;19.20;99.90;;;;;;4967751;28;20476;-78
2021/06/07 07:59:01;;;;;;;5.60;3.33;;;19.20;99.90;;;;;;4970487;28;20445;-78
2021/06/07 08:01:27;;;;;;;5.97;3.60;;;19.30;99.90;;;;;;4968803;28;20492;-78
2021/06/07 08:03:52;;;;;;;1.70;1.30;;;19.40;99.90;;;;;;4966691;28;20182;-79
2021/06/07 08:06:18;;;;;;;2.53;2.33;;;19.40;99.90;;;;;;4982633;28;20189;-79
2021/06/07 08:08:43;;;;;;;3.67;3.17;;;19.50;99.90;;;;;;4975932;28;20205;-80
2021/06/07 08:11:10;;;;;;;4.30;2.03;;;19.60;99.90;;;;;;4975913;28;20216;-80
2021/06/07 08:13:36;;;;;;;2.70;1.83;;;19.70;99.90;;;;;;4976678;28;20185;-79
2021/06/07 08:16:01;;;;;;;4.13;2.73;;;20.00;99.90;;;;;;4958781;28;20433;-79
2021/06/07 08:18:27;;;;;;;20.87;2.40;;;20.10;99.90;;;;;;4976815;28;20177;-79
2021/06/07 08:20:53;;;;;;;6.80;4.17;;;20.30;99.90;;;;;;4975852;28;20650;-79
2021/06/07 08:23:18;;;;;;;3.30;2.70;;;20.60;99.90;;;;;;4975566;28;20189;-79
2021/06/07 08:25:44;;;;;;;9.53;3.37;;;20.70;99.90;;;;;;4976898;28;20205;-80
2021/06/07 08:28:10;;;;;;;3.67;2.80;;;20.90;99.90;;;;;;4959570;28;20255;-79
2021/06/07 08:30:36;;;;;;;5.73;2.17;;;21.10;99.90;;;;;;4958949;28;20228;-79
2021/06/07 08:33:03;;;;;;;3.63;2.40;;;21.30;99.90;;;;;;4978164;28;20178;-79
2021/06/07 08:35:29;;;;;;;4.47;1.90;;;21.40;99.90;;;;;;4978212;28;20461;-78
2021/06/07 08:37:55;;;;;;;2.80;2.20;;;21.60;99.90;;;;;;4961426;28;20435;-79
2021/06/07 08:40:21;;;;;;;5.67;3.47;;;21.80;99.90;;;;;;4974241;28;20862;-78
2021/06/07 08:42:47;;;;;;;3.43;3.07;;;21.90;99.90;;;;;;4974356;28;20173;-80
2021/06/07 08:45:17;;;;;;;3.80;2.90;;;22.00;99.90;;;;;;4960354;28;20547;-78
2021/06/07 08:47:44;;;;;;;1.63;1.53;;;22.20;99.90;;;;;;4956888;28;20424;-79
2021/06/07 08:50:11;;;;;;;3.47;3.13;;;22.40;99.90;;;;;;4959161;28;20441;-79
2021/06/07 08:52:42;;;;;;;2.20;2.00;;;22.60;99.90;;;;;;4960047;28;20420;-79
2021/06/07 08:55:08;;;;;;;8.97;3.93;;;22.70;99.90;;;;;;4957026;28;20467;-77
2021/06/07 08:57:43;;;;;;;3.03;2.10;;;23.00;99.90;;;;;;4974562;28;20476;-80
2021/06/07 09:00:10;;;;;;;3.67;1.97;;;23.30;99.90;;;;;;4969826;28;20444;-78
2021/06/07 09:02:38;;;;;;;2.73;2.53;;;23.60;99.90;;;;;;4976517;28;20464;-79
2021/06/07 09:05:04;;;;;;;3.47;2.30;;;23.70;99.90;;;;;;4958141;28;20911;-78
2021/06/07 09:07:30;;;;;;;4.27;2.63;;;23.70;99.90;;;;;;4955895;29;20430;-78
2021/06/07 09:10:07;;;;;;;2.20;2.00;;;23.80;99.90;;;;;;4975065;28;20503;-77
2021/06/07 09:12:33;;;;;;;6.20;2.87;;;23.80;99.90;;;;;;4957995;29;20196;-80
2021/06/07 09:14:58;;;;;;;6.80;4.17;;;23.80;99.90;;;;;;4966576;28;20965;-80
2021/06/07 09:17:24;;;;;;;6.37;2.07;;;23.70;99.90;;;;;;4977638;28;20177;-80
2021/06/07 09:20:17;;;;;;;3.63;2.70;;;23.80;99.90;;;;;;4960693;28;20744;-79
2021/06/07 09:22:55;;;;;;;4.87;1.90;;;23.80;99.90;;;;;;4954319;28;20700;-79
2021/06/07 09:25:24;;;;;;;3.47;2.70;;;23.70;99.90;;;;;;4960244;28;20421;-80
2021/06/07 09:27:59;;;;;;;4.03;2.83;;;23.70;99.90;;;;;;4960879;28;20524;-80
2021/06/07 09:30:25;;;;;;;3.00;2.70;;;23.60;99.90;;;;;;4958337;29;20452;-80
2021/06/07 09:33:18;;;;;;;12.13;4.07;;;23.50;99.90;;;;;;4978266;28;20421;-79
2021/06/07 09:35:46;;;;;;;2.80;2.17;;;23.30;99.90;;;;;;4961688;28;20484;-79
2021/06/07 09:38:12;;;;;;;3.20;2.70;;;23.30;99.90;;;;;;4981554;28;20779;-81
2021/06/07 09:40:38;;;;;;;3.60;2.47;;;23.40;99.90;;;;;;4961396;28;20452;-80
2021/06/07 09:43:05;;;;;;;3.10;2.90;;;23.40;99.90;;;;;;4960985;28;20433;-80
2021/06/07 09:45:45;;;;;;;4.50;3.43;;;23.40;99.90;;;;;;4963214;28;20633;-80
2021/06/07 09:48:13;;;;;;;6.30;3.47;;;23.00;99.90;;;;;;4979468;28;20424;-81
2021/06/07 09:50:56;;;;;;;4.97;3.33;;;22.90;99.90;;;;;;4961594;28;20460;-79
2021/06/07 09:53:54;;;;;;;2.10;1.77;;;23.00;99.90;;;;;;4979115;28;20417;-79
2021/06/07 09:56:21;;;;;;;5.97;2.80;;;23.00;99.90;;;;;;4978276;28;20512;-80
2021/06/07 09:58:48;;;;;;;5.00;2.43;;;23.10;99.90;;;;;;4964799;28;20464;-80
2021/06/07 10:01:16;;;;;;;3.67;2.83;;;23.10;99.90;;;;;;4981791;28;20425;-81
2021/06/07 10:03:43;;;;;;;2.27;2.10;;;23.10;99.90;;;;;;4966141;28;20420;-80
2021/06/07 10:06:30;;;;;;;2.30;2.10;;;23.20;99.90;;;;;;4981652;28;20783;-80
2021/06/07 10:09:00;;;;;;;2.40;1.93;;;23.30;99.90;;;;;;4974284;28;20467;-79
2021/06/07 10:11:29;;;;;;;2.20;1.73;;;23.50;99.90;;;;;;4980539;28;20433;-80
2021/06/07 10:14:15;;;;;;;4.07;2.63;;;23.70;99.90;;;;;;4981214;28;20528;-79
2021/06/07 10:16:56;;;;;;;2.23;2.10;;;23.90;99.90;;;;;;4970810;28;20431;-81
2021/06/07 10:19:32;;;;;;;2.60;1.97;;;23.90;99.90;;;;;;4979929;28;20443;-80
2021/06/07 10:21:58;;;;;;;2.50;2.30;;;24.00;99.90;;;;;;4984898;28;20408;-80
2021/06/07 10:24:24;;;;;;;1.83;1.30;;;24.00;99.90;;;;;;4982313;28;20427;-80
2021/06/07 10:26:50;;;;;;;3.00;2.63;;;23.90;99.90;;;;;;4964079;28;20496;-79
2021/06/07 10:29:15;;;;;;;3.80;1.90;;;23.90;99.90;;;;;;4962672;28;20198;-79
2021/06/07 10:31:41;;;;;;;5.23;2.47;;;23.70;99.90;;;;;;4983750;28;20634;-80
2021/06/07 10:34:09;;;;;;;3.00;2.43;;;23.60;99.90;;;;;;4966271;28;20229;-79
2021/06/07 10:36:46;;;;;;;5.60;2.50;;;23.50;99.90;;;;;;4983209;28;20619;-80
2021/06/07 10:39:19;;;;;;;2.40;2.13;;;23.40;99.90;;;;;;4963866;28;20539;-79
2021/06/07 10:42:08;;;;;;;3.10;1.47;;;23.30;99.90;;;;;;4962479;28;20795;-80
2021/06/07 10:44:38;;;;;;;2.80;2.57;;;23.30;99.90;;;;;;4978584;28;20432;-81
2021/06/07 10:47:10;;;;;;;4.50;2.90;;;23.30;99.90;;;;;;4961850;28;20425;-81
2021/06/07 10:49:38;;;;;;;2.33;1.40;;;23.70;99.90;;;;;;4961989;28;20942;-79
2021/06/07 10:52:19;;;;;;;3.20;2.17;;;24.40;99.90;;;;;;4995277;28;20424;-79
2021/06/07 10:55:06;;;;;;;4.97;1.90;;;25.00;99.90;;;;;;4962147;28;20829;-80
2021/06/07 10:57:38;;;;;;;4.27;2.10;;;25.90;99.90;;;;;;4979455;28;20428;-80
2021/06/07 11:00:12;;;;;;;3.10;2.53;;;26.60;99.90;;;;;;4978989;28;20445;-80
2021/06/07 11:02:40;;;;;;;5.67;2.50;;;26.80;99.90;;;;;;4962054;28;20476;-80
2021/06/07 11:05:18;;;;;;;2.77;2.50;;;26.90;99.90;;;;;;4979115;28;21024;-80
2021/06/07 11:07:58;;;;;;;3.63;2.10;;;26.90;99.90;;;;;;4959352;29;20502;-80
2021/06/07 11:10:27;;;;;;;5.30;2.03;;;26.80;99.90;;;;;;4963557;28;20506;-79
2021/06/07 11:13:06;;;;;;;2.80;2.37;;;26.30;99.90;;;;;;4963688;28;20812;-79
2021/06/07 11:15:40;;;;;;;4.37;3.03;;;26.00;99.90;;;;;;4978581;28;20604;-79
2021/06/07 11:18:27;;;;;;;3.00;2.63;;;25.70;99.90;;;;;;4963078;28;20523;-79
2021/06/07 11:21:07;;;;;;;3.60;2.53;;;25.30;99.90;;;;;;4963267;28;20468;-80
2021/06/07 11:23:37;;;;;;;3.43;2.80;;;25.10;99.90;;;;;;4963509;28;20448;-80
2021/06/07 11:26:05;;;;;;;3.50;2.20;;;24.90;99.90;;;;;;4979682;28;20460;-79
2021/06/07 11:28:31;;;;;;;7.13;3.97;;;24.50;99.90;;;;;;4962621;28;20460;-80
2021/06/07 11:30:57;;;;;;;1.70;1.53;;;24.30;99.90;;;;;;4995603;28;20456;-79
2021/06/07 11:33:23;;;;;;;2.87;2.30;;;23.90;99.90;;;;;;4980230;28;20173;-80
2021/06/07 11:35:49;;;;;;;4.17;2.73;;;23.60;99.90;;;;;;4979032;28;20452;-80
2021/06/07 11:38:35;;;;;;;2.90;2.30;;;23.40;99.90;;;;;;4961929;28;20417;-79
2021/06/07 11:41:03;;;;;;;4.83;2.10;;;23.20;99.90;;;;;;4979955;28;20260;-79
2021/06/07 11:43:47;;;;;;;4.90;3.10;;;23.10;99.90;;;;;;4979423;28;20417;-80
2021/06/07 11:46:33;;;;;;;3.03;2.50;;;22.90;99.90;;;;;;4987377;28;20447;-80
2021/06/07 11:49:04;;;;;;;3.80;3.00;;;22.80;99.90;;;;;;4957878;28;20844;-79
2021/06/07 11:51:33;;;;;;;1.87;1.77;;;22.70;99.90;;;;;;4962493;28;20492;-80
2021/06/07 11:54:00;;;;;;;2.40;1.80;;;22.70;99.90;;;;;;4980082;28;20808;-80
2021/06/07 11:56:25;;;;;;;3.03;2.70;;;22.70;99.90;;;;;;4961970;28;20425;-80
2021/06/07 11:58:51;;;;;;;5.13;3.63;;;22.50;99.90;;;;;;4979079;28;20445;-80
2021/06/07 12:01:17;;;;;;;4.30;2.70;;;22.60;99.90;;;;;;4963601;28;20213;-80
2021/06/07 12:03:44;;;;;;;2.90;2.70;;;22.60;99.90;;;;;;4962417;28;20212;-80
2021/06/07 12:06:10;;;;;;;3.80;1.43;;;22.50;99.90;;;;;;4979712;28;20455;-80
2021/06/07 12:08:35;;;;;;;2.63;2.40;;;22.50;99.90;;;;;;4979550;28;20429;-80
2021/06/07 12:11:03;;;;;;;2.40;1.97;;;22.50;99.90;;;;;;4962218;28;20184;-80
2021/06/07 12:13:34;;;;;;;5.20;2.30;;;22.50;99.90;;;;;;4958769;28;20185;-80
2021/06/07 12:16:04;;;;;;;3.87;2.20;;;22.50;99.90;;;;;;4978705;28;20480;-80
2021/06/07 12:18:31;;;;;;;3.33;2.17;;;22.50;99.90;;;;;;4971930;28;20465;-80
2021/06/07 12:21:06;;;;;;;2.07;1.87;;;22.40;99.90;;;;;;4961163;28;20476;-80
2021/06/07 12:23:35;;;;;;;2.97;1.67;;;22.40;99.90;;;;;;4961549;28;20443;-80
2021/06/07 12:29:26;;;;;;;1.87;1.77;;;22.30;99.90;;;;;;4977524;28;20448;-80
2021/06/07 12:32:12;;;;;;;4.93;1.87;;;22.30;99.90;;;;;;4966369;28;20413;-82
2021/06/07 12:34:57;;;;;;;1.50;1.40;;;22.40;99.90;;;;;;4977387;28;20456;-81
2021/06/07 12:37:28;;;;;;;3.77;1.87;;;22.30;99.90;;;;;;4987882;28;20401;-80
2021/06/07 12:40:11;;;;;;;3.63;3.03;;;22.40;99.90;;;;;;4976670;28;20436;-80
2021/06/07 12:42:37;;;;;;;3.57;2.43;;;22.40;99.90;;;;;;4959376;28;20443;-81
2021/06/07 12:45:09;;;;;;;5.40;2.40;;;22.30;99.90;;;;;;4960316;28;20432;-80
2021/06/07 12:47:35;;;;;;;1.97;1.57;;;22.20;99.90;;;;;;4961463;28;20417;-80
2021/06/07 12:50:16;;;;;;;1.53;1.43;;;22.20;99.90;;;;;;4959838;28;20953;-80
2021/06/07 12:52:47;;;;;;;2.70;2.27;;;22.30;99.90;;;;;;4959565;28;20174;-80
2021/06/07 12:55:13;;;;;;;2.90;1.53;;;22.20;99.90;;;;;;4976901;28;20535;-80